KHOT/HOT METAR and TAF weather

Enter ICAO airport designator
Station Type Date Time Source
KHOT METAR 2020/11/25 22:53 UTC NOAA

KHOT 252253Z AUTO 33006KT 10SM CLR 11/04 A3003 RMK AO2 SLP167 T01060044


Station Type Date Time Source
KHOT Decoded METAR 2020/11/25 22:53 UTC NOAA

HOT SPRINGS MEMORIAL FIELD, AR, United States (KHOT) 34-29N 093-06W 162M
Nov 25, 2020 - 05:53 PM EST / 2020.11.25 2253 UTC
Wind: from the NNW (330 degrees) at 7 MPH (6 KT):0
Visibility: 10 mile(s):0
Sky conditions: clear
Temperature: 51.1 F (10.6 C)
Dew Point: 39.9 F (4.4 C)
Relative Humidity: 65%
Pressure (altimeter): 30.03 in. Hg (1016 hPa)
ob: KHOT 252253Z AUTO 33006KT 10SM CLR 11/04 A3003 RMK AO2 SLP167 T01060044
cycle: 23

Station Type Date Time Source
KHOT TAF 2020/11/25 20:54 UTC NOAA

TAF
AMD KHOT 251953Z 2520/2618 29008G16KT P6SM BKN030
FM260000 VRB03KT P6SM SKC
TEMPO 2610/2614 1SM BR SCT002

Example: see airport list